Durkee, Oregon
Current Conditions -  °F | °C
As of 12:53 AM on Friday 19 Dec 2014 (Local Time) from KBKE Reporting Station
Overcast Overcast  
Wind Chill: 28°   Ceiling: 6000
Heat Index: 38°   Visibility: 10mi
Dew Point: 33°   Wind: 18mph
Humidity: 83%   Direction: 90°E
Pressure: 29.99"   Gusts: 25mph
Location:  44.58°N, 117.46°W
Report Text: KBKE 190853Z AUTO 09016G22KT 10SM FEW030 BKN060 OVC110 03/01 A2999 RMK AO2 SLP168 T00330006 $
Loading
Personal Weather Stations






























Interactive Weather Map New forecast layout! Learn more

10-Day Weather Forecast

Advertisements
Track Severe Weather on mobile